Albany, NY

1:41 AM EST on November 19, 2017 (GMT -0500)
Albany International | | Change Station
Active Advisory: Wind Advisory

Elev 282 ft 42.75 °N, 73.80 °W | Updated 14 minutes ago

Rain
Rain
46 °F
Feels Like 40 °F
N
14
Wind Variable Wind from South
Gusts 22 mph

Today
High -- | Low -- °F
--% Chance of Precip.
Yesterday
High -- | Low -- °F
Precip. -- in
Pressure 29.26 in
Visibility 8.0 miles
Clouds Mostly Cloudy 1100 ft
Mostly Cloudy 3000 ft
Overcast 8500 ft
Windchill 40 °F
Dew Point 42 °F
Humidity 86%
Rainfall 0.08 in
Snow Depth Not available.
6:52 AM 4:28 PM
New Moon, 1% visible
SPECI KALB 190627Z 17012G19KT 8SM -RA BKN011 BKN030 OVC085 08/06 A2926 RMK AO2 BKN011 V SCT P0004 T00780056
Pressure 29.26 in
Visibility 8.0 miles
Clouds Mostly Cloudy 1100 ft
Mostly Cloudy 3000 ft
Overcast 8500 ft
Windchill 40 °F
Dew Point 42 °F
Humidity 86%
Rainfall 0.08 in
Snow Depth Not available.
6:52 AM 4:28 PM
New Moon, 1% visible
SPECI KALB 190627Z 17012G19KT 8SM -RA BKN011 BKN030 OVC085 08/06 A2926 RMK AO2 BKN011 V SCT P0004 T00780056

Get Your Daily Forecast Email!

Thanks for signing up!

Be on the lookout for a verification email in your inbox.

You'll start receiving severe weather alerts in your inbox..

×

10-Day Weather Forecast

Almanac

Astronomy

Nov. 19, 2017 Rise Set
Actual Time
Civil Twilight
Nautical Twilight
Astronomical Twilight
Moon
Length of Visible Light
Length of Day
Tomorrow will be .
, % of the Moon is Illuminated

Today's Extremes

State Highs State Lows

Community

WunderPhotos

Category 6

Welcome to Category 6. This is the collective home for Weather Underground's featured writeups by Dr. Jeff Masters (right), Bob Henson (left), Chris Burt, and other regular contributors.

Nearby

Air Quality

  Air Quality AQ Index Pollutant
Not available.

Snow Depth

Station Depth Elevation

Earthquake Activity

City Distance Mag. Time & Date
Minimum magnitude displayed is 2.5.

Coastal Water Temperatures

Place Temperature

Stations

Nearby Weather Stations

Station Location Temp. Windchill Dew Point Humidity Wind Precip. Elev Updated Type
                   

Watches & Warnings

Wind Advisory
Issued: 10:10 PM EST Nov. 18, 2017 – National Weather Service

... Wind Advisory remains in effect from 6 am to 6 PM EST Sunday...

* locations... Mohawk Valley, capital region, Taconics, Schoharie
valley, eastern Catskills, Mid Hudson valley, Berkshires and
northwest Connecticut.

* Winds... west to northwest winds of 20 to 30 mph with gusts up
to 50 mph.

* Timing... early Sunday morning into early Sunday evening.

* Impacts... downed trees, tree limbs and power lines. Scattered
power outages are expected.

Precautionary/preparedness actions...

A Wind Advisory is issued when sustained winds are forecast to be
31 to 39 mph or gusts will range between 46 and 57 mph. Winds of
these magnitudes may cause minor property damage without extra
precautions. Motorists in high profile vehicles should use
caution until the winds subside.